createdAt,value
2018-04-06T00:00:10.761Z,12.57
2018-04-06T00:02:38.905Z,17.00
2018-04-06T00:05:07.049Z,10.40
2018-04-06T00:07:35.169Z,14.73
2018-04-06T00:10:03.312Z,13.63
2018-04-06T00:12:31.451Z,16.10
2018-04-06T00:14:59.590Z,14.20
2018-04-06T00:17:27.705Z,12.57
2018-04-06T00:19:55.877Z,11.40
2018-04-06T00:22:23.971Z,13.70
2018-04-06T00:24:52.118Z,8.87
2018-04-06T00:27:20.234Z,12.83
2018-04-06T00:29:48.356Z,9.97
2018-04-06T00:32:16.460Z,9.67
2018-04-06T00:34:44.625Z,10.67
2018-04-06T00:37:12.754Z,13.90
2018-04-06T00:39:40.871Z,11.07
2018-04-06T00:42:08.974Z,11.73
2018-04-06T00:44:37.110Z,14.00
2018-04-06T00:47:05.246Z,15.10
2018-04-06T00:49:33.365Z,15.87
2018-04-06T00:52:01.489Z,11.43
2018-04-06T00:54:29.618Z,12.13
2018-04-06T00:56:57.763Z,13.27
2018-04-06T00:59:25.892Z,13.50
2018-04-06T01:01:54.042Z,15.33
2018-04-06T01:04:22.168Z,19.83
2018-04-06T01:06:50.301Z,9.77
2018-04-06T01:09:18.453Z,8.27
2018-04-06T01:11:46.582Z,12.20
2018-04-06T01:14:14.700Z,10.50
2018-04-06T01:16:42.810Z,15.13
2018-04-06T01:19:10.937Z,9.43
2018-04-06T01:21:39.119Z,12.67
2018-04-06T01:24:07.264Z,12.03
2018-04-06T01:26:35.383Z,13.27
2018-04-06T01:29:03.533Z,11.83
2018-04-06T01:31:31.642Z,10.63
2018-04-06T01:33:59.793Z,10.10
2018-04-06T01:36:28.066Z,12.50
2018-04-06T01:38:56.172Z,13.80
2018-04-06T01:41:24.294Z,12.73
2018-04-06T01:43:52.435Z,16.63
2018-04-06T01:46:20.581Z,12.70
2018-04-06T01:48:48.765Z,18.07
2018-04-06T01:51:16.906Z,16.13
2018-04-06T01:53:45.052Z,15.00
2018-04-06T01:56:13.164Z,13.80
2018-04-06T01:58:41.305Z,16.97
2018-04-06T02:01:09.427Z,12.90
2018-04-06T02:03:37.557Z,16.70
2018-04-06T02:06:05.696Z,15.07
2018-04-06T02:08:33.836Z,13.80
2018-04-06T02:11:01.974Z,17.67
2018-04-06T02:13:30.099Z,12.57
2018-04-06T02:15:58.228Z,11.23
2018-04-06T02:18:26.330Z,16.53
2018-04-06T02:20:54.501Z,13.17
2018-04-06T02:23:22.656Z,12.73
2018-04-06T02:25:50.754Z,14.40
2018-04-06T02:28:18.866Z,13.37
2018-04-06T02:30:46.994Z,8.93
2018-04-06T02:33:15.120Z,12.53
2018-04-06T02:35:43.259Z,15.10
2018-04-06T02:38:11.405Z,13.83
2018-04-06T02:40:39.516Z,14.00
2018-04-06T02:43:07.646Z,12.27
2018-04-06T02:45:35.771Z,12.67
2018-04-06T02:48:03.888Z,11.03
2018-04-06T02:50:32.913Z,12.07
2018-04-06T02:53:01.043Z,11.57
2018-04-06T02:55:29.166Z,15.03
2018-04-06T02:57:57.314Z,14.60
2018-04-06T03:00:25.444Z,10.03
2018-04-06T03:02:53.566Z,13.07
2018-04-06T03:05:21.703Z,14.30
2018-04-06T03:07:49.826Z,13.57
2018-04-06T03:10:17.954Z,12.23
2018-04-06T03:12:46.076Z,19.03
2018-04-06T03:15:14.196Z,13.07
2018-04-06T03:17:42.460Z,13.03
2018-04-06T03:20:10.571Z,17.43
2018-04-06T03:22:38.700Z,18.70
2018-04-06T03:25:06.855Z,23.30
2018-04-06T03:27:34.955Z,19.30
2018-04-06T03:30:03.070Z,13.30
2018-04-06T03:32:31.237Z,15.90
2018-04-06T03:34:59.688Z,15.97
2018-04-06T03:37:27.815Z,17.63
2018-04-06T03:39:55.932Z,16.93
2018-04-06T03:42:27.269Z,20.67
2018-04-06T03:44:55.376Z,18.90
2018-04-06T03:47:23.525Z,15.07
2018-04-06T03:49:51.632Z,14.13
2018-04-06T03:52:19.777Z,14.80
2018-04-06T03:54:47.896Z,13.63
2018-04-06T03:57:16.014Z,19.00
2018-04-06T03:59:44.149Z,16.97
2018-04-06T04:02:12.250Z,13.70
2018-04-06T04:04:40.402Z,19.60
2018-04-06T04:07:08.520Z,17.63
2018-04-06T04:09:36.632Z,22.00
2018-04-06T04:12:04.770Z,19.03
2018-04-06T04:14:32.901Z,21.70
2018-04-06T04:17:01.019Z,18.87
2018-04-06T04:19:29.155Z,18.00
2018-04-06T04:21:57.268Z,15.77
2018-04-06T04:24:25.417Z,16.93
2018-04-06T04:26:53.513Z,14.77
2018-04-06T04:29:21.665Z,16.53
2018-04-06T04:31:49.799Z,12.63
2018-04-06T04:34:17.916Z,18.13
2018-04-06T04:36:46.061Z,15.40
2018-04-06T04:39:14.169Z,12.83
2018-04-06T04:41:42.330Z,15.67
2018-04-06T04:44:10.443Z,16.30
2018-04-06T04:46:38.583Z,17.30
2018-04-06T04:49:06.702Z,19.50
2018-04-06T04:51:35.303Z,22.33
2018-04-06T04:54:03.442Z,17.77
2018-04-06T04:56:31.581Z,16.57
2018-04-06T04:59:00.021Z,17.03
2018-04-06T05:01:28.142Z,23.77
2018-04-06T05:03:56.260Z,20.33
2018-04-06T05:06:27.548Z,18.87
2018-04-06T05:08:55.681Z,18.80
2018-04-06T05:11:23.774Z,19.27
2018-04-06T05:13:51.898Z,18.50
2018-04-06T05:16:20.027Z,13.53
2018-04-06T05:18:48.180Z,16.37
2018-04-06T05:21:16.280Z,18.83
2018-04-06T05:23:44.433Z,18.23
2018-04-06T05:26:12.561Z,18.47
2018-04-06T05:28:40.692Z,11.73
2018-04-06T05:31:08.818Z,17.10
2018-04-06T05:33:36.947Z,15.80
2018-04-06T05:36:05.085Z,17.10
2018-04-06T05:38:33.222Z,18.33
2018-04-06T05:41:01.338Z,17.43
2018-04-06T05:43:29.470Z,18.33
2018-04-06T05:45:57.610Z,19.97
2018-04-06T05:48:25.745Z,18.83
2018-04-06T05:50:53.865Z,14.97
2018-04-06T05:53:22.011Z,20.47
2018-04-06T05:55:50.139Z,17.23
2018-04-06T05:58:18.281Z,17.87
2018-04-06T06:00:46.421Z,15.03
2018-04-06T06:03:14.543Z,18.77
2018-04-06T06:05:42.680Z,17.60
2018-04-06T06:08:10.811Z,15.33
2018-04-06T06:10:38.913Z,18.23
2018-04-06T06:13:07.059Z,14.10
2018-04-06T06:15:35.191Z,17.90
2018-04-06T06:18:03.378Z,22.50
2018-04-06T06:20:31.525Z,14.40
2018-04-06T06:22:59.658Z,15.37
2018-04-06T06:25:27.793Z,17.30
2018-04-06T06:27:55.895Z,18.93
2018-04-06T06:30:24.023Z,19.50
2018-04-06T06:32:52.160Z,17.27
2018-04-06T06:35:20.298Z,18.13
2018-04-06T06:37:48.432Z,17.03
2018-04-06T06:40:16.554Z,20.70
2018-04-06T06:42:44.675Z,19.27
2018-04-06T06:45:12.792Z,19.80
2018-04-06T06:47:40.934Z,18.50
2018-04-06T06:50:09.087Z,15.77
2018-04-06T06:52:37.243Z,24.27
2018-04-06T06:55:05.353Z,15.37
2018-04-06T06:57:33.492Z,15.30
2018-04-06T07:00:01.630Z,21.73
2018-04-06T07:02:29.742Z,17.53
2018-04-06T07:04:57.852Z,17.83
2018-04-06T07:07:25.974Z,19.53
2018-04-06T07:09:54.126Z,16.47
2018-04-06T07:12:22.252Z,15.67
2018-04-06T07:14:50.432Z,21.63
2018-04-06T07:17:18.574Z,20.50
2018-04-06T07:19:46.676Z,23.10
2018-04-06T07:22:14.820Z,19.17
2018-04-06T07:24:42.962Z,17.03
2018-04-06T07:27:11.103Z,17.27
2018-04-06T07:29:39.230Z,16.43
2018-04-06T07:32:07.369Z,16.43
2018-04-06T07:34:35.504Z,17.77
2018-04-06T07:37:06.837Z,18.93
2018-04-06T07:39:34.952Z,18.17
2018-04-06T07:42:03.087Z,16.73
2018-04-06T07:44:31.209Z,16.50
2018-04-06T07:46:59.503Z,16.13
2018-04-06T07:49:27.624Z,11.70
2018-04-06T07:51:55.774Z,14.37
2018-04-06T07:54:23.899Z,14.70
2018-04-06T07:56:52.043Z,10.23
2018-04-06T07:59:20.165Z,12.53
2018-04-06T08:01:48.353Z,13.17
2018-04-06T08:04:16.471Z,11.53
2018-04-06T08:06:44.608Z,10.73
2018-04-06T08:09:12.762Z,11.73
2018-04-06T08:11:40.882Z,14.57
2018-04-06T08:14:09.035Z,10.87
2018-04-06T08:16:37.643Z,13.57
2018-04-06T08:19:05.773Z,14.10
2018-04-06T08:21:34.294Z,12.30
2018-04-06T08:24:02.420Z,10.57
2018-04-06T08:26:30.576Z,10.43
2018-04-06T08:28:58.703Z,10.07
2018-04-06T08:31:26.881Z,9.33
2018-04-06T08:33:55.028Z,11.00
2018-04-06T08:36:23.173Z,9.93
2018-04-06T08:38:51.290Z,10.83
2018-04-06T08:41:19.419Z,11.57
2018-04-06T08:43:47.557Z,8.70
2018-04-06T08:46:15.672Z,11.23
2018-04-06T08:48:43.816Z,9.33
2018-04-06T08:51:11.951Z,8.40
2018-04-06T08:53:40.078Z,11.17
2018-04-06T08:56:08.248Z,11.50
2018-04-06T08:58:36.396Z,6.93
2018-04-06T09:01:04.563Z,9.77
2018-04-06T09:03:32.681Z,8.10
2018-04-06T09:06:00.833Z,10.23
2018-04-06T09:08:28.975Z,7.67
2018-04-06T09:10:57.102Z,8.97
2018-04-06T09:13:28.927Z,8.43
2018-04-06T09:15:57.071Z,9.80
2018-04-06T09:18:25.197Z,8.60
2018-04-06T09:20:53.323Z,8.90
2018-04-06T09:23:21.511Z,8.13
2018-04-06T09:25:49.670Z,7.40
2018-04-06T09:28:17.799Z,8.90
2018-04-06T09:30:45.957Z,7.60
2018-04-06T09:33:14.076Z,7.43
2018-04-06T09:35:42.211Z,8.67
2018-04-06T09:38:16.110Z,7.27
2018-04-06T09:40:44.212Z,5.43
2018-04-06T09:43:12.353Z,9.97
2018-04-06T09:45:40.531Z,6.07
2018-04-06T09:48:08.663Z,8.10
2018-04-06T09:50:36.783Z,8.87
2018-04-06T09:53:04.900Z,6.57
2018-04-06T09:55:33.012Z,7.23
2018-04-06T09:58:01.146Z,10.90
2018-04-06T10:00:33.148Z,5.30
2018-04-06T10:03:03.207Z,5.40
2018-04-06T10:05:31.314Z,9.40
2018-04-06T10:07:59.448Z,5.30
2018-04-06T10:10:27.577Z,6.63
2018-04-06T10:12:55.695Z,4.33
2018-04-06T10:15:23.822Z,5.77
2018-04-06T10:17:51.933Z,9.20
2018-04-06T10:20:20.089Z,4.50
2018-04-06T10:22:48.206Z,4.77
2018-04-06T10:25:16.324Z,5.17
2018-04-06T10:27:44.453Z,5.67
2018-04-06T10:30:12.592Z,4.50
2018-04-06T10:32:40.712Z,4.23
2018-04-06T10:35:10.912Z,5.23
2018-04-06T10:37:39.238Z,5.37
2018-04-06T10:40:07.364Z,5.40
2018-04-06T10:42:35.482Z,5.93
2018-04-06T10:45:03.621Z,6.23
2018-04-06T10:47:32.024Z,3.97
2018-04-06T10:50:00.136Z,5.40
2018-04-06T10:52:28.260Z,6.43
2018-04-06T10:54:56.412Z,4.67
2018-04-06T10:57:24.554Z,5.83
2018-04-06T10:59:52.673Z,5.10
2018-04-06T11:02:20.793Z,5.97
2018-04-06T11:04:48.918Z,4.97
2018-04-06T11:07:17.026Z,4.97
2018-04-06T11:09:45.168Z,4.63
2018-04-06T11:12:13.293Z,5.03
2018-04-06T11:14:41.421Z,3.93
2018-04-06T11:17:09.573Z,6.17
2018-04-06T11:19:37.688Z,4.70
2018-04-06T11:22:05.896Z,2.87
2018-04-06T11:24:34.010Z,4.90
2018-04-06T11:27:02.124Z,3.67
2018-04-06T11:29:30.514Z,3.50
2018-04-06T11:31:58.623Z,2.20
2018-04-06T11:34:26.745Z,4.87
2018-04-06T11:36:54.917Z,6.20
2018-04-06T11:39:23.022Z,4.30
2018-04-06T11:41:51.153Z,7.57
2018-04-06T11:44:19.292Z,5.63
2018-04-06T11:46:47.398Z,4.23
2018-04-06T11:49:15.517Z,3.40
2018-04-06T11:51:43.621Z,7.30
2018-04-06T11:54:11.805Z,3.20
2018-04-06T11:56:39.864Z,4.87
2018-04-06T11:59:07.992Z,5.27
2018-04-06T12:01:36.644Z,5.77
2018-04-06T12:04:04.738Z,3.33
2018-04-06T12:06:33.789Z,4.77
2018-04-06T12:09:01.893Z,4.00
2018-04-06T12:11:30.025Z,2.97
2018-04-06T12:13:58.131Z,3.83
2018-04-06T12:16:26.259Z,5.07
2018-04-06T12:18:54.389Z,3.43
2018-04-06T12:21:22.811Z,3.30
2018-04-06T12:23:51.227Z,2.17
2018-04-06T12:26:19.357Z,4.03
2018-04-06T12:28:47.481Z,3.57
2018-04-06T12:31:15.624Z,2.63
2018-04-06T12:33:43.774Z,3.27
2018-04-06T12:36:11.899Z,3.40
2018-04-06T12:38:40.017Z,2.53
2018-04-06T12:41:08.121Z,2.03
2018-04-06T12:43:36.240Z,2.63
2018-04-06T12:46:04.341Z,4.63
2018-04-06T12:48:32.477Z,4.40
2018-04-06T12:51:00.588Z,3.77
2018-04-06T12:53:28.863Z,2.03
2018-04-06T12:55:56.956Z,4.47
2018-04-06T12:58:25.082Z,3.43
2018-04-06T13:00:53.207Z,3.27
2018-04-06T13:03:21.316Z,3.10
2018-04-06T13:05:49.439Z,2.33
2018-04-06T13:08:17.560Z,4.97
2018-04-06T13:10:45.679Z,2.87
2018-04-06T13:13:13.813Z,3.60
2018-04-06T13:15:44.860Z,3.43
2018-04-06T13:18:12.997Z,3.10
2018-04-06T13:20:41.120Z,3.23
2018-04-06T13:23:09.300Z,1.70
2018-04-06T13:25:37.936Z,3.13
2018-04-06T13:28:06.064Z,4.57
2018-04-06T13:30:34.368Z,2.60
2018-04-06T13:33:02.615Z,3.10
2018-04-06T13:35:30.926Z,3.53
2018-04-06T13:37:59.045Z,3.03
2018-04-06T13:40:27.171Z,5.37
2018-04-06T13:42:55.285Z,3.23
2018-04-06T13:45:23.427Z,3.97
2018-04-06T13:47:51.553Z,5.87
2018-04-06T13:50:19.701Z,4.37
2018-04-06T13:52:51.531Z,3.10
2018-04-06T13:55:19.682Z,4.33
2018-04-06T13:57:47.801Z,2.60
2018-04-06T14:00:15.901Z,2.07
2018-04-06T14:02:44.025Z,2.60
2018-04-06T14:05:12.142Z,1.07
2018-04-06T14:07:40.240Z,3.53
2018-04-06T14:10:08.371Z,3.57
2018-04-06T14:12:36.495Z,3.33
2018-04-06T14:15:04.666Z,3.23
2018-04-06T14:17:35.941Z,2.30
2018-04-06T14:20:04.064Z,3.23
2018-04-06T14:22:32.206Z,6.00
2018-04-06T14:25:00.312Z,3.37
2018-04-06T14:27:28.445Z,2.00
2018-04-06T14:29:56.538Z,3.47
2018-04-06T14:32:24.655Z,2.37
2018-04-06T14:34:52.780Z,3.83
2018-04-06T14:37:20.915Z,5.37
2018-04-06T14:39:49.055Z,5.73
2018-04-06T14:42:17.165Z,4.47
2018-04-06T14:44:45.288Z,3.43
2018-04-06T14:47:13.421Z,3.47
2018-04-06T14:49:41.521Z,3.60
2018-04-06T14:52:09.648Z,5.53
2018-04-06T14:54:37.763Z,2.47
2018-04-06T14:57:05.911Z,3.10
2018-04-06T14:59:34.028Z,3.73
2018-04-06T15:02:02.226Z,2.93
2018-04-06T15:04:30.340Z,2.30
2018-04-06T15:06:58.538Z,3.00
2018-04-06T15:09:26.797Z,2.97
2018-04-06T15:12:01.099Z,3.17
2018-04-06T15:14:30.291Z,2.80
2018-04-06T15:16:58.410Z,4.43
2018-04-06T15:19:26.551Z,3.13
2018-04-06T15:21:54.721Z,3.13
2018-04-06T15:24:22.853Z,3.23
2018-04-06T15:26:50.992Z,4.30
2018-04-06T15:29:19.104Z,2.23
2018-04-06T15:31:48.494Z,4.00
2018-04-06T15:34:16.800Z,4.03
2018-04-06T15:36:45.128Z,2.90
2018-04-06T15:39:13.232Z,3.30
2018-04-06T15:41:41.346Z,5.33
2018-04-06T15:44:10.823Z,3.63
2018-04-06T15:46:38.934Z,3.37
2018-04-06T15:49:07.088Z,3.67
2018-04-06T15:51:35.237Z,6.73
2018-04-06T15:54:03.364Z,4.17
2018-04-06T15:56:31.492Z,4.90
2018-04-06T15:58:59.611Z,4.80
2018-04-06T16:01:27.742Z,4.20
2018-04-06T16:03:55.898Z,3.20
2018-04-06T16:06:24.026Z,5.33
2018-04-06T16:08:52.165Z,2.40
2018-04-06T16:11:20.781Z,3.63
2018-04-06T16:13:48.884Z,5.87
2018-04-06T16:16:17.008Z,4.23
2018-04-06T16:18:45.162Z,2.90
2018-04-06T16:21:13.269Z,4.50
2018-04-06T16:23:41.411Z,4.83
2018-04-06T16:26:09.564Z,2.50
2018-04-06T16:28:37.691Z,4.33
2018-04-06T16:31:05.834Z,4.70
2018-04-06T16:33:33.976Z,3.97
2018-04-06T16:36:02.104Z,4.53
2018-04-06T16:38:30.231Z,5.23
2018-04-06T16:41:01.757Z,1.80
2018-04-06T16:43:29.861Z,4.63
2018-04-06T16:45:58.010Z,6.93
2018-04-06T16:48:26.163Z,4.83
2018-04-06T16:50:54.275Z,3.67
2018-04-06T16:53:22.404Z,4.27
2018-04-06T16:55:50.526Z,3.40
2018-04-06T16:58:18.674Z,4.37
2018-04-06T17:00:46.807Z,5.50
2018-04-06T17:03:14.942Z,3.73
2018-04-06T17:05:43.049Z,5.83
2018-04-06T17:08:11.183Z,5.33
2018-04-06T17:10:39.310Z,6.63
2018-04-06T17:13:07.472Z,5.60
2018-04-06T17:15:35.560Z,3.90
2018-04-06T17:18:03.677Z,5.77
2018-04-06T17:20:31.833Z,4.23
2018-04-06T17:22:59.958Z,4.40
2018-04-06T17:25:28.082Z,3.20
2018-04-06T17:27:56.205Z,5.43
2018-04-06T17:30:24.336Z,5.60
2018-04-06T17:32:52.477Z,2.67
2018-04-06T17:35:23.579Z,4.53
2018-04-06T17:37:51.696Z,5.23
2018-04-06T17:40:19.849Z,3.43
2018-04-06T17:42:47.952Z,2.93
2018-04-06T17:45:16.099Z,2.63
2018-04-06T17:47:44.204Z,5.63
2018-04-06T17:50:12.338Z,3.00
2018-04-06T17:52:40.494Z,6.33
2018-04-06T17:55:08.622Z,4.00
2018-04-06T17:57:37.090Z,5.77
2018-04-06T18:00:07.457Z,7.20
2018-04-06T18:02:35.596Z,3.43
2018-04-06T18:05:03.735Z,6.17
2018-04-06T18:07:31.855Z,4.20
2018-04-06T18:10:00.020Z,2.67
2018-04-06T18:12:28.261Z,5.03
2018-04-06T18:14:56.365Z,3.63
2018-04-06T18:17:24.484Z,3.57
2018-04-06T18:19:52.616Z,4.93
2018-04-06T18:22:20.805Z,3.20
2018-04-06T18:24:48.939Z,4.60
2018-04-06T18:27:17.374Z,3.30
2018-04-06T18:29:45.515Z,4.67
2018-04-06T18:32:13.670Z,3.90
2018-04-06T18:34:41.799Z,6.80
2018-04-06T18:37:09.913Z,6.80
2018-04-06T18:39:38.051Z,4.63
2018-04-06T18:42:06.197Z,3.23
2018-04-06T18:44:34.315Z,3.73
2018-04-06T18:47:02.444Z,3.63
2018-04-06T18:49:30.595Z,5.10
2018-04-06T18:51:58.692Z,6.37
2018-04-06T18:54:26.813Z,4.80
2018-04-06T18:56:54.933Z,6.70
2018-04-06T18:59:23.074Z,3.93
2018-04-06T19:01:51.194Z,4.07
2018-04-06T19:04:19.385Z,6.97
2018-04-06T19:06:47.546Z,4.20
2018-04-06T19:09:15.663Z,3.07
2018-04-06T19:11:43.802Z,5.93
2018-04-06T19:14:11.939Z,2.47
2018-04-06T19:16:40.038Z,4.33
2018-04-06T19:19:08.173Z,3.60
2018-04-06T19:21:36.551Z,7.90
2018-04-06T19:24:04.665Z,3.20
2018-04-06T19:26:32.787Z,7.50
2018-04-06T19:29:00.898Z,5.87
2018-04-06T19:31:29.036Z,6.10
2018-04-06T19:33:57.164Z,3.40
2018-04-06T19:36:25.321Z,3.47
2018-04-06T19:38:53.430Z,3.70
2018-04-06T19:41:25.288Z,5.73
2018-04-06T19:43:53.459Z,3.60
2018-04-06T19:46:21.539Z,3.83
2018-04-06T19:48:49.692Z,2.97
2018-04-06T19:51:17.815Z,3.00
2018-04-06T19:53:45.933Z,5.93
2018-04-06T19:56:14.063Z,5.10
2018-04-06T19:58:42.176Z,6.10
2018-04-06T20:01:10.318Z,4.77
2018-04-06T20:03:38.447Z,3.50
2018-04-06T20:06:06.596Z,4.83
2018-04-06T20:08:34.717Z,6.57
2018-04-06T20:11:02.867Z,2.63
2018-04-06T20:13:31.010Z,6.73
2018-04-06T20:15:59.124Z,6.07
2018-04-06T20:18:27.389Z,8.60
2018-04-06T20:20:55.525Z,4.37
2018-04-06T20:23:23.643Z,5.00
2018-04-06T20:25:51.779Z,4.80
2018-04-06T20:28:22.848Z,5.47
2018-04-06T20:30:50.993Z,6.13
2018-04-06T20:33:19.128Z,6.07
2018-04-06T20:35:47.297Z,6.30
2018-04-06T20:38:15.425Z,7.47
2018-04-06T20:40:43.540Z,5.53
2018-04-06T20:43:11.663Z,8.87
2018-04-06T20:45:39.819Z,4.43
2018-04-06T20:48:07.925Z,5.47
2018-04-06T20:50:36.069Z,5.03
2018-04-06T20:53:04.178Z,4.83
2018-04-06T20:55:32.289Z,5.60
2018-04-06T20:58:00.442Z,5.07
2018-04-06T21:00:28.564Z,4.90
2018-04-06T21:02:56.715Z,7.03
2018-04-06T21:05:24.855Z,5.20
2018-04-06T21:07:52.979Z,4.60
2018-04-06T21:10:21.107Z,5.03
2018-04-06T21:12:50.139Z,7.97
2018-04-06T21:15:18.298Z,5.80
2018-04-06T21:17:46.428Z,4.93
2018-04-06T21:20:14.554Z,4.03
2018-04-06T21:22:42.692Z,5.00
2018-04-06T21:25:10.815Z,5.23
2018-04-06T21:27:38.950Z,4.87
2018-04-06T21:30:07.084Z,5.30
2018-04-06T21:32:35.211Z,4.70
2018-04-06T21:35:03.352Z,5.20
2018-04-06T21:37:31.584Z,6.33
2018-04-06T21:39:59.689Z,5.83
2018-04-06T21:42:27.812Z,4.93
2018-04-06T21:44:55.950Z,5.13
2018-04-06T21:47:24.091Z,4.87
2018-04-06T21:49:52.210Z,3.70
2018-04-06T21:52:20.363Z,5.73
2018-04-06T21:54:48.461Z,4.90
2018-04-06T21:57:16.583Z,3.90
2018-04-06T21:59:45.230Z,6.30
2018-04-06T22:02:13.344Z,7.03
2018-04-06T22:04:41.557Z,4.43
2018-04-06T22:07:09.658Z,7.33
2018-04-06T22:09:37.846Z,7.73
2018-04-06T22:12:06.075Z,4.47
2018-04-06T22:14:34.184Z,6.63
2018-04-06T22:17:02.328Z,8.00
2018-04-06T22:19:30.446Z,6.77
2018-04-06T22:21:58.564Z,5.07
2018-04-06T22:24:26.725Z,5.20
2018-04-06T22:26:55.318Z,9.30
2018-04-06T22:29:23.464Z,6.10
2018-04-06T22:31:51.604Z,5.60
2018-04-06T22:34:19.733Z,5.00
2018-04-06T22:36:47.880Z,5.17
2018-04-06T22:39:16.026Z,6.00
2018-04-06T22:41:44.168Z,6.10
2018-04-06T22:44:12.297Z,6.10
2018-04-06T22:46:40.429Z,6.00
2018-04-06T22:49:08.574Z,5.40
2018-04-06T22:51:36.712Z,4.80
2018-04-06T22:54:04.857Z,5.63
2018-04-06T22:56:33.000Z,5.93
2018-04-06T22:59:01.124Z,6.37
2018-04-06T23:01:29.269Z,5.00
2018-04-06T23:03:57.448Z,5.10
2018-04-06T23:06:25.602Z,6.03
2018-04-06T23:08:53.734Z,3.77
2018-04-06T23:11:21.872Z,7.07
2018-04-06T23:13:50.021Z,5.93
2018-04-06T23:16:21.343Z,6.27
2018-04-06T23:18:49.502Z,4.10
2018-04-06T23:21:17.661Z,5.60
2018-04-06T23:23:45.793Z,7.20
2018-04-06T23:26:13.956Z,6.90
2018-04-06T23:28:42.081Z,5.53
2018-04-06T23:31:10.235Z,4.13
2018-04-06T23:33:38.368Z,6.57
2018-04-06T23:36:06.498Z,6.67
2018-04-06T23:38:34.644Z,5.37
2018-04-06T23:41:02.792Z,4.17
2018-04-06T23:43:30.933Z,4.77
2018-04-06T23:45:59.076Z,4.77
2018-04-06T23:48:27.220Z,5.53
2018-04-06T23:50:55.375Z,4.70
2018-04-06T23:53:23.498Z,5.10
2018-04-06T23:55:51.645Z,6.37
2018-04-06T23:58:19.782Z,6.67
